sensor_id;sensor_type;location;lat;lon;timestamp;P1;durP1;ratioP1;P2;durP2;ratioP2
7410;SDS011;3747;48.628;9.058;2022-11-15T00:00:45;5.40;;;4.63;;
7410;SDS011;3747;48.628;9.058;2022-11-15T00:03:13;4.90;;;4.07;;
7410;SDS011;3747;48.628;9.058;2022-11-15T00:05:42;4.77;;;4.23;;
7410;SDS011;3747;48.628;9.058;2022-11-15T00:08:09;5.57;;;4.47;;
7410;SDS011;3747;48.628;9.058;2022-11-15T00:10:36;6.90;;;5.73;;
7410;SDS011;3747;48.628;9.058;2022-11-15T00:13:06;6.57;;;5.47;;
7410;SDS011;3747;48.628;9.058;2022-11-15T00:15:34;9.83;;;7.33;;
7410;SDS011;3747;48.628;9.058;2022-11-15T00:18:02;9.87;;;7.10;;
7410;SDS011;3747;48.628;9.058;2022-11-15T00:20:29;7.87;;;6.40;;
7410;SDS011;3747;48.628;9.058;2022-11-15T00:22:57;6.73;;;5.90;;
7410;SDS011;3747;48.628;9.058;2022-11-15T00:25:24;8.13;;;5.60;;
7410;SDS011;3747;48.628;9.058;2022-11-15T00:27:54;9.83;;;5.90;;
7410;SDS011;3747;48.628;9.058;2022-11-15T00:30:21;6.80;;;5.43;;
7410;SDS011;3747;48.628;9.058;2022-11-15T00:32:48;7.00;;;5.57;;
7410;SDS011;3747;48.628;9.058;2022-11-15T00:35:15;8.07;;;5.83;;
7410;SDS011;3747;48.628;9.058;2022-11-15T00:37:42;8.50;;;5.63;;
7410;SDS011;3747;48.628;9.058;2022-11-15T00:40:10;6.73;;;5.30;;
7410;SDS011;3747;48.628;9.058;2022-11-15T00:42:38;8.00;;;5.53;;
7410;SDS011;3747;48.628;9.058;2022-11-15T00:45:05;9.23;;;5.63;;
7410;SDS011;3747;48.628;9.058;2022-11-15T00:47:33;8.97;;;6.53;;
7410;SDS011;3747;48.628;9.058;2022-11-15T00:50:00;12.17;;;6.90;;
7410;SDS011;3747;48.628;9.058;2022-11-15T00:52:26;10.30;;;7.20;;
7410;SDS011;3747;48.628;9.058;2022-11-15T00:54:53;7.30;;;5.87;;
7410;SDS011;3747;48.628;9.058;2022-11-15T00:57:21;5.67;;;5.07;;
7410;SDS011;3747;48.628;9.058;2022-11-15T00:59:48;8.83;;;5.10;;
7410;SDS011;3747;48.628;9.058;2022-11-15T01:02:15;7.70;;;5.00;;
7410;SDS011;3747;48.628;9.058;2022-11-15T01:04:41;7.50;;;4.73;;
7410;SDS011;3747;48.628;9.058;2022-11-15T01:07:08;6.50;;;4.33;;
7410;SDS011;3747;48.628;9.058;2022-11-15T01:09:35;4.70;;;4.07;;
7410;SDS011;3747;48.628;9.058;2022-11-15T01:12:02;5.93;;;4.03;;
7410;SDS011;3747;48.628;9.058;2022-11-15T01:14:30;6.03;;;3.97;;
7410;SDS011;3747;48.628;9.058;2022-11-15T01:16:57;5.73;;;3.97;;
7410;SDS011;3747;48.628;9.058;2022-11-15T01:19:24;8.43;;;3.80;;
7410;SDS011;3747;48.628;9.058;2022-11-15T01:21:50;4.17;;;3.57;;
7410;SDS011;3747;48.628;9.058;2022-11-15T01:24:17;4.03;;;3.50;;
7410;SDS011;3747;48.628;9.058;2022-11-15T01:26:44;5.93;;;3.60;;
7410;SDS011;3747;48.628;9.058;2022-11-15T01:29:11;4.87;;;3.83;;
7410;SDS011;3747;48.628;9.058;2022-11-15T01:31:39;4.80;;;3.70;;
7410;SDS011;3747;48.628;9.058;2022-11-15T01:34:05;4.63;;;3.70;;
7410;SDS011;3747;48.628;9.058;2022-11-15T01:36:32;5.37;;;3.73;;
7410;SDS011;3747;48.628;9.058;2022-11-15T01:38:59;4.53;;;3.80;;
7410;SDS011;3747;48.628;9.058;2022-11-15T01:41:27;6.27;;;4.03;;
7410;SDS011;3747;48.628;9.058;2022-11-15T01:43:56;3.43;;;3.13;;
7410;SDS011;3747;48.628;9.058;2022-11-15T01:46:28;5.53;;;3.77;;
7410;SDS011;3747;48.628;9.058;2022-11-15T01:48:59;3.63;;;3.33;;
7410;SDS011;3747;48.628;9.058;2022-11-15T01:51:28;4.20;;;3.53;;
7410;SDS011;3747;48.628;9.058;2022-11-15T01:54:04;7.50;;;4.67;;
7410;SDS011;3747;48.628;9.058;2022-11-15T01:56:36;4.70;;;3.83;;
7410;SDS011;3747;48.628;9.058;2022-11-15T01:59:09;5.30;;;3.57;;
7410;SDS011;3747;48.628;9.058;2022-11-15T02:01:36;4.63;;;3.03;;
7410;SDS011;3747;48.628;9.058;2022-11-15T02:04:05;9.27;;;4.33;;
7410;SDS011;3747;48.628;9.058;2022-11-15T02:06:37;4.67;;;3.60;;
7410;SDS011;3747;48.628;9.058;2022-11-15T02:09:05;4.23;;;3.47;;
7410;SDS011;3747;48.628;9.058;2022-11-15T02:11:32;7.23;;;3.30;;
7410;SDS011;3747;48.628;9.058;2022-11-15T02:13:59;8.63;;;3.27;;
7410;SDS011;3747;48.628;9.058;2022-11-15T02:16:30;5.37;;;2.93;;
7410;SDS011;3747;48.628;9.058;2022-11-15T02:19:02;3.23;;;2.80;;
7410;SDS011;3747;48.628;9.058;2022-11-15T02:21:40;4.17;;;3.10;;
7410;SDS011;3747;48.628;9.058;2022-11-15T02:24:16;4.27;;;3.30;;
7410;SDS011;3747;48.628;9.058;2022-11-15T02:30:24;8.97;;;5.23;;
7410;SDS011;3747;48.628;9.058;2022-11-15T02:32:54;5.70;;;3.87;;
7410;SDS011;3747;48.628;9.058;2022-11-15T02:35:28;4.23;;;3.23;;
7410;SDS011;3747;48.628;9.058;2022-11-15T02:38:02;3.20;;;2.83;;
7410;SDS011;3747;48.628;9.058;2022-11-15T02:40:36;3.53;;;3.23;;
7410;SDS011;3747;48.628;9.058;2022-11-15T02:43:10;6.23;;;3.07;;
7410;SDS011;3747;48.628;9.058;2022-11-15T02:46:00;4.03;;;2.83;;
7410;SDS011;3747;48.628;9.058;2022-11-15T02:48:31;4.57;;;2.83;;
7410;SDS011;3747;48.628;9.058;2022-11-15T02:50:58;4.10;;;2.50;;
7410;SDS011;3747;48.628;9.058;2022-11-15T02:53:26;4.93;;;3.37;;
7410;SDS011;3747;48.628;9.058;2022-11-15T02:55:54;3.13;;;2.53;;
7410;SDS011;3747;48.628;9.058;2022-11-15T02:58:27;4.07;;;2.77;;
7410;SDS011;3747;48.628;9.058;2022-11-15T03:01:18;3.67;;;2.77;;
7410;SDS011;3747;48.628;9.058;2022-11-15T03:03:59;5.53;;;2.90;;
7410;SDS011;3747;48.628;9.058;2022-11-15T03:06:38;5.13;;;3.33;;
7410;SDS011;3747;48.628;9.058;2022-11-15T03:09:12;5.73;;;2.90;;
7410;SDS011;3747;48.628;9.058;2022-11-15T03:11:49;3.73;;;2.67;;
7410;SDS011;3747;48.628;9.058;2022-11-15T03:14:21;4.93;;;2.90;;
7410;SDS011;3747;48.628;9.058;2022-11-15T03:16:57;3.10;;;2.80;;
7410;SDS011;3747;48.628;9.058;2022-11-15T03:19:33;4.63;;;3.70;;
7410;SDS011;3747;48.628;9.058;2022-11-15T03:22:07;4.27;;;2.40;;
7410;SDS011;3747;48.628;9.058;2022-11-15T03:24:38;3.33;;;3.03;;
7410;SDS011;3747;48.628;9.058;2022-11-15T03:27:05;3.53;;;3.13;;
7410;SDS011;3747;48.628;9.058;2022-11-15T03:29:33;4.10;;;3.40;;
7410;SDS011;3747;48.628;9.058;2022-11-15T03:32:06;4.80;;;3.17;;
7410;SDS011;3747;48.628;9.058;2022-11-15T03:34:38;3.20;;;2.93;;
7410;SDS011;3747;48.628;9.058;2022-11-15T03:37:08;3.57;;;2.87;;
7410;SDS011;3747;48.628;9.058;2022-11-15T03:39:39;3.00;;;2.70;;
7410;SDS011;3747;48.628;9.058;2022-11-15T03:42:08;4.43;;;2.93;;
7410;SDS011;3747;48.628;9.058;2022-11-15T03:44:45;5.03;;;2.70;;
7410;SDS011;3747;48.628;9.058;2022-11-15T03:47:19;4.83;;;3.13;;
7410;SDS011;3747;48.628;9.058;2022-11-15T03:49:50;3.47;;;3.10;;
7410;SDS011;3747;48.628;9.058;2022-11-15T03:52:19;4.10;;;3.70;;
7410;SDS011;3747;48.628;9.058;2022-11-15T03:54:48;3.40;;;2.87;;
7410;SDS011;3747;48.628;9.058;2022-11-15T03:57:17;4.33;;;3.93;;
7410;SDS011;3747;48.628;9.058;2022-11-15T03:59:43;4.60;;;3.80;;
7410;SDS011;3747;48.628;9.058;2022-11-15T04:02:10;4.63;;;3.50;;
7410;SDS011;3747;48.628;9.058;2022-11-15T04:04:39;4.37;;;3.23;;
7410;SDS011;3747;48.628;9.058;2022-11-15T04:07:06;2.97;;;2.70;;
7410;SDS011;3747;48.628;9.058;2022-11-15T04:09:32;3.83;;;3.20;;
7410;SDS011;3747;48.628;9.058;2022-11-15T04:12:19;3.07;;;2.67;;
7410;SDS011;3747;48.628;9.058;2022-11-15T04:14:55;5.30;;;3.27;;
7410;SDS011;3747;48.628;9.058;2022-11-15T04:17:32;3.43;;;2.93;;
7410;SDS011;3747;48.628;9.058;2022-11-15T04:20:02;6.00;;;3.00;;
7410;SDS011;3747;48.628;9.058;2022-11-15T04:22:47;3.10;;;2.80;;
7410;SDS011;3747;48.628;9.058;2022-11-15T04:25:30;3.50;;;2.77;;
7410;SDS011;3747;48.628;9.058;2022-11-15T04:27:57;4.40;;;2.93;;
7410;SDS011;3747;48.628;9.058;2022-11-15T04:30:24;2.87;;;2.60;;
7410;SDS011;3747;48.628;9.058;2022-11-15T04:32:51;3.87;;;2.50;;
7410;SDS011;3747;48.628;9.058;2022-11-15T04:35:19;3.47;;;3.17;;
7410;SDS011;3747;48.628;9.058;2022-11-15T04:37:46;4.90;;;3.33;;
7410;SDS011;3747;48.628;9.058;2022-11-15T04:40:12;3.87;;;3.43;;
7410;SDS011;3747;48.628;9.058;2022-11-15T04:42:40;3.77;;;3.40;;
7410;SDS011;3747;48.628;9.058;2022-11-15T04:45:07;5.27;;;3.57;;
7410;SDS011;3747;48.628;9.058;2022-11-15T04:47:35;5.53;;;3.83;;
7410;SDS011;3747;48.628;9.058;2022-11-15T04:50:02;4.43;;;3.23;;
7410;SDS011;3747;48.628;9.058;2022-11-15T04:52:30;3.20;;;2.90;;
7410;SDS011;3747;48.628;9.058;2022-11-15T04:54:57;5.30;;;2.80;;
7410;SDS011;3747;48.628;9.058;2022-11-15T04:57:24;3.03;;;2.27;;
7410;SDS011;3747;48.628;9.058;2022-11-15T04:59:50;3.33;;;2.90;;
7410;SDS011;3747;48.628;9.058;2022-11-15T05:02:17;2.60;;;2.40;;
7410;SDS011;3747;48.628;9.058;2022-11-15T05:04:44;3.33;;;3.03;;
7410;SDS011;3747;48.628;9.058;2022-11-15T05:07:10;3.83;;;3.43;;
7410;SDS011;3747;48.628;9.058;2022-11-15T05:09:38;4.23;;;2.97;;
7410;SDS011;3747;48.628;9.058;2022-11-15T05:12:04;3.77;;;3.10;;
7410;SDS011;3747;48.628;9.058;2022-11-15T05:14:31;5.70;;;4.20;;
7410;SDS011;3747;48.628;9.058;2022-11-15T05:16:58;5.07;;;4.57;;
7410;SDS011;3747;48.628;9.058;2022-11-15T05:19:26;10.53;;;6.33;;
7410;SDS011;3747;48.628;9.058;2022-11-15T05:21:52;11.43;;;7.73;;
7410;SDS011;3747;48.628;9.058;2022-11-15T05:24:19;12.90;;;9.23;;
7410;SDS011;3747;48.628;9.058;2022-11-15T05:26:47;11.83;;;9.70;;
7410;SDS011;3747;48.628;9.058;2022-11-15T05:29:14;15.87;;;11.67;;
7410;SDS011;3747;48.628;9.058;2022-11-15T05:31:41;16.43;;;13.30;;
7410;SDS011;3747;48.628;9.058;2022-11-15T05:34:08;21.30;;;16.10;;
7410;SDS011;3747;48.628;9.058;2022-11-15T05:36:36;27.27;;;20.53;;
7410;SDS011;3747;48.628;9.058;2022-11-15T05:39:04;19.37;;;15.03;;
7410;SDS011;3747;48.628;9.058;2022-11-15T05:41:33;24.73;;;17.50;;
7410;SDS011;3747;48.628;9.058;2022-11-15T05:44:03;24.10;;;19.03;;
7410;SDS011;3747;48.628;9.058;2022-11-15T05:46:33;21.20;;;16.73;;
7410;SDS011;3747;48.628;9.058;2022-11-15T05:49:03;15.83;;;10.87;;
7410;SDS011;3747;48.628;9.058;2022-11-15T05:51:33;13.13;;;10.60;;
7410;SDS011;3747;48.628;9.058;2022-11-15T05:54:00;12.53;;;10.80;;
7410;SDS011;3747;48.628;9.058;2022-11-15T05:56:28;14.17;;;10.53;;
7410;SDS011;3747;48.628;9.058;2022-11-15T05:58:55;15.73;;;8.80;;
7410;SDS011;3747;48.628;9.058;2022-11-15T06:01:25;15.63;;;10.47;;
7410;SDS011;3747;48.628;9.058;2022-11-15T06:03:53;16.67;;;12.90;;
7410;SDS011;3747;48.628;9.058;2022-11-15T06:06:20;23.70;;;17.67;;
7410;SDS011;3747;48.628;9.058;2022-11-15T06:08:47;25.87;;;18.17;;
7410;SDS011;3747;48.628;9.058;2022-11-15T06:11:14;20.60;;;14.70;;
7410;SDS011;3747;48.628;9.058;2022-11-15T06:13:40;17.40;;;13.33;;
7410;SDS011;3747;48.628;9.058;2022-11-15T06:16:07;10.60;;;8.77;;
7410;SDS011;3747;48.628;9.058;2022-11-15T06:18:35;8.10;;;6.70;;
7410;SDS011;3747;48.628;9.058;2022-11-15T06:21:03;7.80;;;6.83;;
7410;SDS011;3747;48.628;9.058;2022-11-15T06:23:31;10.07;;;6.87;;
7410;SDS011;3747;48.628;9.058;2022-11-15T06:25:58;8.50;;;5.50;;
7410;SDS011;3747;48.628;9.058;2022-11-15T06:28:27;7.43;;;5.30;;
7410;SDS011;3747;48.628;9.058;2022-11-15T06:30:54;5.90;;;5.00;;
7410;SDS011;3747;48.628;9.058;2022-11-15T06:33:21;5.97;;;4.53;;
7410;SDS011;3747;48.628;9.058;2022-11-15T06:35:49;6.10;;;4.57;;
7410;SDS011;3747;48.628;9.058;2022-11-15T06:38:16;5.13;;;4.53;;
7410;SDS011;3747;48.628;9.058;2022-11-15T06:40:42;6.67;;;4.80;;
7410;SDS011;3747;48.628;9.058;2022-11-15T06:43:09;5.83;;;4.87;;
7410;SDS011;3747;48.628;9.058;2022-11-15T06:45:36;5.27;;;4.77;;
7410;SDS011;3747;48.628;9.058;2022-11-15T06:48:03;5.80;;;5.17;;
7410;SDS011;3747;48.628;9.058;2022-11-15T06:50:30;8.00;;;5.73;;
7410;SDS011;3747;48.628;9.058;2022-11-15T06:53:01;6.13;;;5.43;;
7410;SDS011;3747;48.628;9.058;2022-11-15T06:55:29;6.33;;;4.07;;
7410;SDS011;3747;48.628;9.058;2022-11-15T06:57:55;3.73;;;3.43;;
7410;SDS011;3747;48.628;9.058;2022-11-15T07:00:22;3.63;;;3.20;;
7410;SDS011;3747;48.628;9.058;2022-11-15T07:02:49;3.43;;;3.03;;
7410;SDS011;3747;48.628;9.058;2022-11-15T07:05:16;3.50;;;2.73;;
7410;SDS011;3747;48.628;9.058;2022-11-15T07:07:42;4.17;;;2.33;;
7410;SDS011;3747;48.628;9.058;2022-11-15T07:10:11;6.37;;;2.70;;
7410;SDS011;3747;48.628;9.058;2022-11-15T07:12:37;4.10;;;2.40;;
7410;SDS011;3747;48.628;9.058;2022-11-15T07:15:04;4.47;;;2.90;;
7410;SDS011;3747;48.628;9.058;2022-11-15T07:17:32;5.63;;;3.20;;
7410;SDS011;3747;48.628;9.058;2022-11-15T07:19:59;6.77;;;2.93;;
7410;SDS011;3747;48.628;9.058;2022-11-15T07:22:25;4.37;;;2.77;;
7410;SDS011;3747;48.628;9.058;2022-11-15T07:24:52;3.57;;;2.97;;
7410;SDS011;3747;48.628;9.058;2022-11-15T07:27:20;11.00;;;2.70;;
7410;SDS011;3747;48.628;9.058;2022-11-15T07:29:47;5.13;;;4.63;;
7410;SDS011;3747;48.628;9.058;2022-11-15T07:32:13;6.43;;;4.00;;
7410;SDS011;3747;48.628;9.058;2022-11-15T07:34:40;6.93;;;4.40;;
7410;SDS011;3747;48.628;9.058;2022-11-15T07:37:07;5.38;;;4.70;;
7410;SDS011;3747;48.628;9.058;2022-11-15T07:39:35;5.47;;;4.37;;
7410;SDS011;3747;48.628;9.058;2022-11-15T07:42:01;3.73;;;2.80;;
7410;SDS011;3747;48.628;9.058;2022-11-15T07:44:47;4.17;;;2.60;;
7410;SDS011;3747;48.628;9.058;2022-11-15T07:47:14;3.93;;;3.20;;
7410;SDS011;3747;48.628;9.058;2022-11-15T07:49:40;3.90;;;2.60;;
7410;SDS011;3747;48.628;9.058;2022-11-15T07:52:07;3.83;;;2.90;;
7410;SDS011;3747;48.628;9.058;2022-11-15T07:54:34;2.93;;;2.37;;
7410;SDS011;3747;48.628;9.058;2022-11-15T07:57:00;4.97;;;3.00;;
7410;SDS011;3747;48.628;9.058;2022-11-15T07:59:27;5.00;;;2.37;;
7410;SDS011;3747;48.628;9.058;2022-11-15T08:01:55;3.20;;;2.20;;
7410;SDS011;3747;48.628;9.058;2022-11-15T08:04:22;4.03;;;2.23;;
7410;SDS011;3747;48.628;9.058;2022-11-15T08:06:49;4.27;;;3.40;;
7410;SDS011;3747;48.628;9.058;2022-11-15T08:09:15;4.83;;;2.97;;
7410;SDS011;3747;48.628;9.058;2022-11-15T08:11:42;5.60;;;2.50;;
7410;SDS011;3747;48.628;9.058;2022-11-15T08:14:09;4.30;;;2.17;;
7410;SDS011;3747;48.628;9.058;2022-11-15T08:16:35;6.47;;;3.33;;
7410;SDS011;3747;48.628;9.058;2022-11-15T08:19:04;6.20;;;3.87;;
7410;SDS011;3747;48.628;9.058;2022-11-15T08:21:30;4.43;;;4.00;;
7410;SDS011;3747;48.628;9.058;2022-11-15T08:23:57;3.87;;;3.03;;
7410;SDS011;3747;48.628;9.058;2022-11-15T08:26:24;1.63;;;1.53;;
7410;SDS011;3747;48.628;9.058;2022-11-15T08:28:54;2.17;;;1.70;;
7410;SDS011;3747;48.628;9.058;2022-11-15T08:31:20;1.93;;;1.70;;
7410;SDS011;3747;48.628;9.058;2022-11-15T08:33:47;2.17;;;1.97;;
7410;SDS011;3747;48.628;9.058;2022-11-15T08:36:16;3.30;;;2.40;;
7410;SDS011;3747;48.628;9.058;2022-11-15T08:38:53;1.80;;;1.70;;
7410;SDS011;3747;48.628;9.058;2022-11-15T08:41:22;2.70;;;2.50;;
7410;SDS011;3747;48.628;9.058;2022-11-15T08:43:52;2.67;;;1.63;;
7410;SDS011;3747;48.628;9.058;2022-11-15T08:46:19;3.23;;;2.03;;
7410;SDS011;3747;48.628;9.058;2022-11-15T08:48:46;3.03;;;1.57;;
7410;SDS011;3747;48.628;9.058;2022-11-15T08:51:12;2.10;;;1.80;;
7410;SDS011;3747;48.628;9.058;2022-11-15T08:53:41;2.30;;;1.83;;
7410;SDS011;3747;48.628;9.058;2022-11-15T08:56:08;1.47;;;1.37;;
7410;SDS011;3747;48.628;9.058;2022-11-15T08:58:35;1.23;;;1.13;;
7410;SDS011;3747;48.628;9.058;2022-11-15T09:01:02;1.53;;;1.43;;
7410;SDS011;3747;48.628;9.058;2022-11-15T09:03:36;3.03;;;1.43;;
7410;SDS011;3747;48.628;9.058;2022-11-15T09:06:05;1.87;;;1.20;;
7410;SDS011;3747;48.628;9.058;2022-11-15T09:08:38;1.40;;;1.30;;
7410;SDS011;3747;48.628;9.058;2022-11-15T09:11:08;1.87;;;1.30;;
7410;SDS011;3747;48.628;9.058;2022-11-15T09:13:36;2.10;;;1.37;;
7410;SDS011;3747;48.628;9.058;2022-11-15T09:16:03;3.27;;;2.40;;
7410;SDS011;3747;48.628;9.058;2022-11-15T09:18:39;2.53;;;2.30;;
7410;SDS011;3747;48.628;9.058;2022-11-15T09:21:06;1.80;;;1.70;;
7410;SDS011;3747;48.628;9.058;2022-11-15T09:23:37;2.23;;;1.67;;
7410;SDS011;3747;48.628;9.058;2022-11-15T09:26:05;3.47;;;1.70;;
7410;SDS011;3747;48.628;9.058;2022-11-15T09:28:33;1.70;;;1.60;;
7410;SDS011;3747;48.628;9.058;2022-11-15T09:31:01;1.83;;;1.60;;
7410;SDS011;3747;48.628;9.058;2022-11-15T09:33:30;1.90;;;1.70;;
7410;SDS011;3747;48.628;9.058;2022-11-15T09:35:59;2.37;;;1.53;;
7410;SDS011;3747;48.628;9.058;2022-11-15T09:38:27;2.63;;;1.60;;
7410;SDS011;3747;48.628;9.058;2022-11-15T09:40:57;2.00;;;1.30;;
7410;SDS011;3747;48.628;9.058;2022-11-15T09:43:40;3.27;;;2.00;;
7410;SDS011;3747;48.628;9.058;2022-11-15T09:46:15;2.93;;;1.53;;
7410;SDS011;3747;48.628;9.058;2022-11-15T09:48:48;2.43;;;1.50;;
7410;SDS011;3747;48.628;9.058;2022-11-15T09:51:20;2.43;;;1.50;;
7410;SDS011;3747;48.628;9.058;2022-11-15T09:53:54;1.60;;;1.30;;
7410;SDS011;3747;48.628;9.058;2022-11-15T09:56:29;1.60;;;1.50;;
7410;SDS011;3747;48.628;9.058;2022-11-15T09:59:00;2.30;;;1.30;;
7410;SDS011;3747;48.628;9.058;2022-11-15T10:01:41;1.30;;;1.07;;
7410;SDS011;3747;48.628;9.058;2022-11-15T10:04:15;2.27;;;1.30;;
7410;SDS011;3747;48.628;9.058;2022-11-15T10:06:43;2.73;;;1.37;;
7410;SDS011;3747;48.628;9.058;2022-11-15T10:09:19;1.00;;;0.90;;
7410;SDS011;3747;48.628;9.058;2022-11-15T10:11:51;4.50;;;1.10;;
7410;SDS011;3747;48.628;9.058;2022-11-15T10:14:19;1.77;;;0.93;;
7410;SDS011;3747;48.628;9.058;2022-11-15T10:16:52;0.93;;;0.80;;
7410;SDS011;3747;48.628;9.058;2022-11-15T10:19:46;2.70;;;1.13;;
7410;SDS011;3747;48.628;9.058;2022-11-15T10:22:30;1.40;;;1.10;;
7410;SDS011;3747;48.628;9.058;2022-11-15T10:25:16;1.77;;;1.47;;
7410;SDS011;3747;48.628;9.058;2022-11-15T10:27:53;1.53;;;0.90;;
7410;SDS011;3747;48.628;9.058;2022-11-15T10:30:21;1.00;;;0.90;;
7410;SDS011;3747;48.628;9.058;2022-11-15T10:32:49;0.80;;;0.80;;
7410;SDS011;3747;48.628;9.058;2022-11-15T10:35:20;1.33;;;0.80;;
7410;SDS011;3747;48.628;9.058;2022-11-15T10:37:49;2.37;;;1.20;;
7410;SDS011;3747;48.628;9.058;2022-11-15T10:40:19;1.23;;;0.90;;
7410;SDS011;3747;48.628;9.058;2022-11-15T10:42:48;4.37;;;1.23;;
7410;SDS011;3747;48.628;9.058;2022-11-15T10:45:31;1.70;;;1.30;;
7410;SDS011;3747;48.628;9.058;2022-11-15T10:50:49;2.63;;;1.30;;
7410;SDS011;3747;48.628;9.058;2022-11-15T10:53:20;1.83;;;1.10;;
7410;SDS011;3747;48.628;9.058;2022-11-15T10:55:56;2.63;;;0.80;;
7410;SDS011;3747;48.628;9.058;2022-11-15T10:58:34;2.60;;;1.30;;
7410;SDS011;3747;48.628;9.058;2022-11-15T11:01:10;1.97;;;0.67;;
7410;SDS011;3747;48.628;9.058;2022-11-15T11:03:39;3.20;;;1.20;;
7410;SDS011;3747;48.628;9.058;2022-11-15T11:06:09;2.00;;;1.60;;
7410;SDS011;3747;48.628;9.058;2022-11-15T11:08:37;4.80;;;1.40;;
7410;SDS011;3747;48.628;9.058;2022-11-15T11:11:11;1.50;;;1.13;;
7410;SDS011;3747;48.628;9.058;2022-11-15T11:13:45;0.90;;;0.90;;
7410;SDS011;3747;48.628;9.058;2022-11-15T11:19:35;1.93;;;1.13;;
7410;SDS011;3747;48.628;9.058;2022-11-15T11:22:12;1.20;;;0.80;;
7410;SDS011;3747;48.628;9.058;2022-11-15T11:24:45;1.23;;;0.93;;
7410;SDS011;3747;48.628;9.058;2022-11-15T11:27:23;0.83;;;0.83;;
7410;SDS011;3747;48.628;9.058;2022-11-15T11:30:06;2.50;;;1.13;;
7410;SDS011;3747;48.628;9.058;2022-11-15T11:32:43;1.07;;;1.00;;
7410;SDS011;3747;48.628;9.058;2022-11-15T11:35:22;1.43;;;0.90;;
7410;SDS011;3747;48.628;9.058;2022-11-15T11:37:53;1.13;;;1.03;;
7410;SDS011;3747;48.628;9.058;2022-11-15T11:40:30;2.13;;;0.97;;
7410;SDS011;3747;48.628;9.058;2022-11-15T11:43:02;1.67;;;1.40;;
7410;SDS011;3747;48.628;9.058;2022-11-15T11:45:52;1.50;;;1.17;;
7410;SDS011;3747;48.628;9.058;2022-11-15T11:48:33;2.10;;;1.20;;
7410;SDS011;3747;48.628;9.058;2022-11-15T11:51:08;1.43;;;1.20;;
7410;SDS011;3747;48.628;9.058;2022-11-15T11:53:40;1.33;;;1.20;;
7410;SDS011;3747;48.628;9.058;2022-11-15T11:56:13;1.63;;;1.33;;
7410;SDS011;3747;48.628;9.058;2022-11-15T11:58:45;1.50;;;1.20;;
7410;SDS011;3747;48.628;9.058;2022-11-15T12:01:16;2.07;;;1.20;;
7410;SDS011;3747;48.628;9.058;2022-11-15T12:03:49;1.83;;;1.60;;
7410;SDS011;3747;48.628;9.058;2022-11-15T12:06:23;1.73;;;1.00;;
7410;SDS011;3747;48.628;9.058;2022-11-15T12:08:56;0.90;;;0.90;;
7410;SDS011;3747;48.628;9.058;2022-11-15T12:11:28;2.17;;;1.00;;
7410;SDS011;3747;48.628;9.058;2022-11-15T12:14:03;1.83;;;1.10;;
7410;SDS011;3747;48.628;9.058;2022-11-15T12:16:37;2.10;;;1.10;;
7410;SDS011;3747;48.628;9.058;2022-11-15T12:19:07;1.93;;;1.40;;
7410;SDS011;3747;48.628;9.058;2022-11-15T12:21:35;2.47;;;1.10;;
7410;SDS011;3747;48.628;9.058;2022-11-15T12:24:06;1.37;;;1.27;;
7410;SDS011;3747;48.628;9.058;2022-11-15T12:26:41;1.50;;;1.27;;
7410;SDS011;3747;48.628;9.058;2022-11-15T12:29:14;2.00;;;1.40;;
7410;SDS011;3747;48.628;9.058;2022-11-15T12:31:47;4.77;;;1.30;;
7410;SDS011;3747;48.628;9.058;2022-11-15T12:34:29;3.57;;;1.43;;
7410;SDS011;3747;48.628;9.058;2022-11-15T12:40:28;2.30;;;1.50;;
7410;SDS011;3747;48.628;9.058;2022-11-15T12:46:10;1.60;;;1.40;;
7410;SDS011;3747;48.628;9.058;2022-11-15T12:48:50;1.20;;;1.10;;
7410;SDS011;3747;48.628;9.058;2022-11-15T12:51:20;1.50;;;1.30;;
7410;SDS011;3747;48.628;9.058;2022-11-15T12:53:48;1.77;;;1.60;;
7410;SDS011;3747;48.628;9.058;2022-11-15T12:56:20;4.40;;;1.40;;
7410;SDS011;3747;48.628;9.058;2022-11-15T12:58:49;2.00;;;1.50;;
7410;SDS011;3747;48.628;9.058;2022-11-15T13:04:25;2.30;;;1.80;;
7410;SDS011;3747;48.628;9.058;2022-11-15T13:06:54;2.23;;;2.03;;
7410;SDS011;3747;48.628;9.058;2022-11-15T13:15:31;2.57;;;1.73;;
7410;SDS011;3747;48.628;9.058;2022-11-15T13:18:28;1.20;;;1.10;;
7410;SDS011;3747;48.628;9.058;2022-11-15T13:21:02;1.70;;;1.60;;
7410;SDS011;3747;48.628;9.058;2022-11-15T13:23:52;4.37;;;2.07;;
7410;SDS011;3747;48.628;9.058;2022-11-15T13:29:16;2.03;;;1.70;;
7410;SDS011;3747;48.628;9.058;2022-11-15T13:31:44;1.70;;;1.33;;
7410;SDS011;3747;48.628;9.058;2022-11-15T13:37:02;2.03;;;1.53;;
7410;SDS011;3747;48.628;9.058;2022-11-15T13:39:30;1.80;;;1.27;;
7410;SDS011;3747;48.628;9.058;2022-11-15T13:41:58;4.10;;;1.80;;
7410;SDS011;3747;48.628;9.058;2022-11-15T13:44:26;1.83;;;1.40;;
7410;SDS011;3747;48.628;9.058;2022-11-15T13:47:01;3.37;;;1.90;;
7410;SDS011;3747;48.628;9.058;2022-11-15T13:49:29;3.93;;;1.80;;
7410;SDS011;3747;48.628;9.058;2022-11-15T13:51:57;3.83;;;1.90;;
7410;SDS011;3747;48.628;9.058;2022-11-15T13:54:27;3.53;;;2.10;;
7410;SDS011;3747;48.628;9.058;2022-11-15T13:56:56;3.27;;;2.80;;
7410;SDS011;3747;48.628;9.058;2022-11-15T13:59:27;2.90;;;2.57;;
7410;SDS011;3747;48.628;9.058;2022-11-15T14:01:55;7.27;;;4.83;;
7410;SDS011;3747;48.628;9.058;2022-11-15T14:04:25;4.27;;;3.03;;
7410;SDS011;3747;48.628;9.058;2022-11-15T14:06:55;9.53;;;6.53;;
7410;SDS011;3747;48.628;9.058;2022-11-15T14:09:29;10.53;;;7.77;;
7410;SDS011;3747;48.628;9.058;2022-11-15T14:12:02;4.47;;;3.40;;
7410;SDS011;3747;48.628;9.058;2022-11-15T14:14:44;4.77;;;3.20;;
7410;SDS011;3747;48.628;9.058;2022-11-15T14:17:18;4.43;;;2.77;;
7410;SDS011;3747;48.628;9.058;2022-11-15T14:19:48;5.03;;;3.57;;
7410;SDS011;3747;48.628;9.058;2022-11-15T14:22:18;4.67;;;3.70;;
7410;SDS011;3747;48.628;9.058;2022-11-15T14:27:39;6.37;;;4.00;;
7410;SDS011;3747;48.628;9.058;2022-11-15T14:30:07;5.33;;;2.90;;
7410;SDS011;3747;48.628;9.058;2022-11-15T14:32:41;4.17;;;3.20;;
7410;SDS011;3747;48.628;9.058;2022-11-15T14:35:12;5.07;;;2.83;;
7410;SDS011;3747;48.628;9.058;2022-11-15T14:37:41;4.67;;;3.10;;
7410;SDS011;3747;48.628;9.058;2022-11-15T14:40:12;5.37;;;2.57;;
7410;SDS011;3747;48.628;9.058;2022-11-15T14:42:39;4.93;;;2.73;;
7410;SDS011;3747;48.628;9.058;2022-11-15T14:45:08;5.43;;;3.77;;
7410;SDS011;3747;48.628;9.058;2022-11-15T14:47:39;4.13;;;3.70;;
7410;SDS011;3747;48.628;9.058;2022-11-15T14:50:05;4.60;;;3.50;;
7410;SDS011;3747;48.628;9.058;2022-11-15T14:52:33;7.87;;;4.60;;
7410;SDS011;3747;48.628;9.058;2022-11-15T14:55:00;5.57;;;4.10;;
7410;SDS011;3747;48.628;9.058;2022-11-15T14:57:29;5.03;;;4.20;;
7410;SDS011;3747;48.628;9.058;2022-11-15T14:59:56;10.43;;;4.13;;
7410;SDS011;3747;48.628;9.058;2022-11-15T15:02:24;5.07;;;3.60;;
7410;SDS011;3747;48.628;9.058;2022-11-15T15:04:52;4.13;;;3.20;;
7410;SDS011;3747;48.628;9.058;2022-11-15T15:07:19;4.20;;;3.17;;
7410;SDS011;3747;48.628;9.058;2022-11-15T15:09:47;10.43;;;5.33;;
7410;SDS011;3747;48.628;9.058;2022-11-15T15:12:14;8.43;;;4.57;;
7410;SDS011;3747;48.628;9.058;2022-11-15T15:14:44;6.93;;;3.70;;
7410;SDS011;3747;48.628;9.058;2022-11-15T15:17:12;4.87;;;3.70;;
7410;SDS011;3747;48.628;9.058;2022-11-15T15:19:40;6.00;;;3.43;;
7410;SDS011;3747;48.628;9.058;2022-11-15T15:22:09;5.03;;;3.70;;
7410;SDS011;3747;48.628;9.058;2022-11-15T15:24:39;3.57;;;3.20;;
7410;SDS011;3747;48.628;9.058;2022-11-15T15:27:06;13.07;;;10.03;;
7410;SDS011;3747;48.628;9.058;2022-11-15T15:29:33;12.17;;;8.97;;
7410;SDS011;3747;48.628;9.058;2022-11-15T15:32:01;11.47;;;7.20;;
7410;SDS011;3747;48.628;9.058;2022-11-15T15:34:28;8.83;;;6.07;;
7410;SDS011;3747;48.628;9.058;2022-11-15T15:40:00;8.30;;;6.57;;
7410;SDS011;3747;48.628;9.058;2022-11-15T15:42:27;7.67;;;6.27;;
7410;SDS011;3747;48.628;9.058;2022-11-15T15:47:37;7.47;;;6.13;;
7410;SDS011;3747;48.628;9.058;2022-11-15T15:50:09;7.00;;;4.70;;
7410;SDS011;3747;48.628;9.058;2022-11-15T15:52:43;5.87;;;4.17;;
7410;SDS011;3747;48.628;9.058;2022-11-15T15:55:09;5.73;;;4.50;;
7410;SDS011;3747;48.628;9.058;2022-11-15T15:57:36;5.43;;;4.10;;
7410;SDS011;3747;48.628;9.058;2022-11-15T16:00:03;7.50;;;4.80;;
7410;SDS011;3747;48.628;9.058;2022-11-15T16:02:31;7.00;;;5.50;;
7410;SDS011;3747;48.628;9.058;2022-11-15T16:04:59;7.27;;;6.10;;
7410;SDS011;3747;48.628;9.058;2022-11-15T16:07:26;8.00;;;7.17;;
7410;SDS011;3747;48.628;9.058;2022-11-15T16:09:54;7.37;;;5.30;;